Time;durP1;ratioP1;P1;durP2;ratioP2;P2;SDS_P1;SDS_P2;PMS_P1;PMS_P2;Temp;Humidity;BMP_temperature;BMP_pressure;BME280_temperature;BME280_humidity;BME280_pressure;Samples;Min_cycle;Max_cycle;Signal;HPM_P1;HPM_P2
2021/07/17 00:00:07;;;;;;;;;;;;;;;20.60;55.79;100123.59;5161432;27;826;-61
2021/07/17 00:02:37;;;;;;;;;;;;;;;20.66;56.23;100114.88;5161400;27;694;-60
2021/07/17 00:05:09;;;;;;;;;;;;;;;20.71;56.32;100100.13;5161282;27;1038;-60
2021/07/17 00:07:35;;;;;;;;;;;;;;;20.76;56.40;100119.31;5160915;27;742;-59
2021/07/17 00:10:00;;;;;;;;;;;;;;;20.77;56.38;100112.66;5160788;27;1970;-61
2021/07/17 00:12:26;;;;;;;;;;;;;;;20.89;56.17;100109.31;5161486;27;1028;-59
2021/07/17 00:14:51;;;;;;;;;;;;;;;20.84;56.29;100101.94;5161444;27;806;-60
2021/07/17 00:17:17;;;;;;;;;;;;;;;20.67;56.94;100108.22;5160740;27;758;-60
2021/07/17 00:19:42;;;;;;;;;;;;;;;21.10;56.18;100100.44;5161139;27;770;-51
2021/07/17 00:22:08;;;;;;;;;;;;;;;21.06;56.12;100099.44;5161076;27;746;-60
2021/07/17 00:24:33;;;;;;;;;;;;;;;21.22;55.81;100110.88;5160721;27;755;-45
2021/07/17 00:26:58;;;;;;;;;;;;;;;20.81;56.80;100101.78;5160061;27;1028;-61
2021/07/17 00:29:24;;;;;;;;;;;;;;;20.51;57.74;100091.22;5160459;27;1909;-44
2021/07/17 00:31:49;;;;;;;;;;;;;;;20.63;56.59;100089.81;5161139;27;766;-60
2021/07/17 00:34:16;;;;;;;;;;;;;;;20.44;58.41;100090.03;5160983;27;779;-57
2021/07/17 00:36:42;;;;;;;;;;;;;;;21.07;57.71;100088.06;5160133;27;822;-60
2021/07/17 00:39:07;;;;;;;;;;;;;;;21.27;57.82;100086.63;5160629;27;842;-60
2021/07/17 00:41:32;;;;;;;;;;;;;;;21.27;57.18;100085.84;5160085;27;957;-58
2021/07/17 00:43:58;;;;;;;;;;;;;;;20.98;56.41;100085.25;5160428;27;787;-61
2021/07/17 00:46:24;;;;;;;;;;;;;;;20.79;55.53;100081.94;5160549;27;794;-45
2021/07/17 00:48:49;;;;;;;;;;;;;;;20.77;53.80;100086.97;5141697;27;1973;-60
2021/07/17 00:51:14;;;;;;;;;;;;;;;20.43;53.44;100072.66;5124522;27;1213;-60
2021/07/17 00:53:40;;;;;;;;;;;;;;;20.30;52.50;100073.53;5142426;27;762;-45
2021/07/17 00:56:05;;;;;;;;;;;;;;;20.44;52.89;100088.09;5156481;27;957;-55
2021/07/17 00:58:32;;;;;;;;;;;;;;;20.53;53.36;100079.84;5121299;27;774;-60
2021/07/17 01:00:58;;;;;;;;;;;;;;;20.67;54.01;100080.59;5139547;27;735;-60
2021/07/17 01:03:24;;;;;;;;;;;;;;;20.58;54.96;100081.66;5139558;27;1091;-45
2021/07/17 01:05:49;;;;;;;;;;;;;;;20.61;55.43;100070.00;5139630;27;751;-60
2021/07/17 01:08:15;;;;;;;;;;;;;;;20.74;55.71;100079.34;5139035;27;1913;-60
2021/07/17 01:10:42;;;;;;;;;;;;;;;20.68;56.06;100076.69;5139309;27;785;-60
2021/07/17 01:13:07;;;;;;;;;;;;;;;20.94;55.31;100072.41;5139294;27;897;-59
2021/07/17 01:15:33;;;;;;;;;;;;;;;20.80;56.07;100072.53;5139032;27;838;-59
2021/07/17 01:17:58;;;;;;;;;;;;;;;20.88;56.22;100065.41;5138758;27;806;-61
2021/07/17 01:20:24;;;;;;;;;;;;;;;20.90;56.26;100060.34;5139026;27;846;-45
2021/07/17 01:22:49;;;;;;;;;;;;;;;20.99;56.06;100063.97;5139120;27;771;-60
2021/07/17 01:25:18;;;;;;;;;;;;;;;20.87;56.63;100058.25;5138892;27;755;-55
2021/07/17 01:27:44;;;;;;;;;;;;;;;20.93;56.50;100048.66;5138351;27;965;-45
2021/07/17 01:30:11;;;;;;;;;;;;;;;20.88;56.56;100057.13;5139174;27;1972;-59
2021/07/17 01:32:36;;;;;;;;;;;;;;;20.75;56.77;100065.19;5139132;27;878;-60
2021/07/17 01:35:01;;;;;;;;;;;;;;;20.37;57.60;100049.09;5138808;27;862;-60
2021/07/17 01:37:27;;;;;;;;;;;;;;;20.76;57.71;100053.03;5138533;27;842;-60
2021/07/17 01:39:52;;;;;;;;;;;;;;;20.92;58.04;100047.06;5137859;27;758;-57
2021/07/17 01:42:18;;;;;;;;;;;;;;;20.93;57.14;100045.91;5119939;27;961;-60
2021/07/17 01:44:43;;;;;;;;;;;;;;;20.96;55.84;100050.81;5138602;27;803;-45
2021/07/17 01:47:10;;;;;;;;;;;;;;;20.80;54.73;100051.25;5138314;27;822;-55
2021/07/17 01:49:35;;;;;;;;;;;;;;;20.73;53.48;100059.16;5138281;27;1968;-60
2021/07/17 01:52:01;;;;;;;;;;;;;;;20.42;52.78;100048.13;5151428;27;1150;-60
2021/07/17 01:54:28;;;;;;;;;;;;;;;20.50;52.39;100058.41;5158665;27;794;-60
2021/07/17 01:56:53;;;;;;;;;;;;;;;20.57;53.60;100053.22;5140549;27;1333;-44
2021/07/17 01:59:18;;;;;;;;;;;;;;;20.80;55.32;100065.06;5158840;27;829;-60
2021/07/17 02:01:44;;;;;;;;;;;;;;;20.82;57.25;100054.50;5159267;27;806;-44
2021/07/17 02:04:09;;;;;;;;;;;;;;;21.03;57.90;100053.91;5159064;27;1179;-59
2021/07/17 02:06:35;;;;;;;;;;;;;;;21.15;58.44;100048.56;5158781;27;743;-60
2021/07/17 02:09:00;;;;;;;;;;;;;;;21.14;59.27;100049.69;5158542;27;1909;-60
2021/07/17 02:11:25;;;;;;;;;;;;;;;20.73;57.98;100050.88;5158538;27;964;-58
2021/07/17 02:13:51;;;;;;;;;;;;;;;20.78;60.63;100058.22;5158946;27;798;-60
2021/07/17 02:16:17;;;;;;;;;;;;;;;21.07;61.66;100054.06;5158671;27;857;-60
2021/07/17 02:18:43;;;;;;;;;;;;;;;21.56;59.96;100059.53;5158294;27;754;-53
2021/07/17 02:21:08;;;;;;;;;;;;;;;21.26;61.32;100053.78;5158501;27;866;-45
2021/07/17 02:23:34;;;;;;;;;;;;;;;21.10;61.89;100059.78;5158760;27;758;-59
2021/07/17 02:25:59;;;;;;;;;;;;;;;21.28;61.16;100062.56;5139796;27;969;-60
2021/07/17 02:28:25;;;;;;;;;;;;;;;20.70;58.68;100059.81;5158012;27;1976;-60
2021/07/17 02:30:50;;;;;;;;;;;;;;;20.70;61.19;100061.75;5158610;27;862;-60
2021/07/17 02:33:16;;;;;;;;;;;;;;;21.16;62.67;100055.72;5158503;27;856;-60
2021/07/17 02:35:41;;;;;;;;;;;;;;;21.48;61.99;100053.63;5158245;27;826;-60
2021/07/17 02:38:07;;;;;;;;;;;;;;;21.69;60.93;100062.13;5158362;27;739;-60
2021/07/17 02:40:32;;;;;;;;;;;;;;;21.14;62.45;100049.69;5158501;27;818;-54
2021/07/17 02:42:58;;;;;;;;;;;;;;;21.00;63.28;100046.25;5157739;27;953;-61
2021/07/17 02:45:23;;;;;;;;;;;;;;;20.94;61.05;100042.00;5157978;27;826;-44
2021/07/17 02:47:48;;;;;;;;;;;;;;;20.99;58.82;100050.16;5158168;27;839;-61
2021/07/17 02:50:14;;;;;;;;;;;;;;;20.96;62.48;100050.81;5157578;27;1909;-58
2021/07/17 02:52:39;;;;;;;;;;;;;;;21.14;63.47;100049.69;5158217;27;1189;-50
2021/07/17 02:55:05;;;;;;;;;;;;;;;21.57;61.86;100042.59;5139706;27;792;-60
2021/07/17 02:57:30;;;;;;;;;;;;;;;21.57;60.95;100039.03;5123329;27;1420;-60
2021/07/17 02:59:56;;;;;;;;;;;;;;;21.10;61.91;100043.19;5137233;27;951;-59
2021/07/17 03:02:21;;;;;;;;;;;;;;;21.16;62.06;100038.31;5137724;27;755;-59
2021/07/17 03:04:47;;;;;;;;;;;;;;;20.96;59.57;100042.50;5137291;28;1603;-61
2021/07/17 03:07:13;;;;;;;;;;;;;;;21.04;60.54;100047.22;5137873;28;747;-53
2021/07/17 03:09:39;;;;;;;;;;;;;;;21.16;62.89;100041.88;5137040;28;1910;-57
2021/07/17 03:12:06;;;;;;;;;;;;;;;21.72;61.24;100035.78;5136402;28;941;-45
2021/07/17 03:14:31;;;;;;;;;;;;;;;21.92;60.18;100044.53;5137318;28;817;-46
2021/07/17 03:16:57;;;;;;;;;;;;;;;21.27;62.21;100047.13;5137572;28;777;-47
2021/07/17 03:19:22;;;;;;;;;;;;;;;21.30;62.24;100049.25;5137177;28;747;-45
2021/07/17 03:21:48;;;;;;;;;;;;;;;21.11;60.34;100050.34;5137581;28;739;-47
2021/07/17 03:24:13;;;;;;;;;;;;;;;20.67;59.14;100060.41;5136877;28;767;-46
2021/07/17 03:26:39;;;;;;;;;;;;;;;21.06;61.54;100049.69;5136441;28;969;-46
2021/07/17 03:29:05;;;;;;;;;;;;;;;21.52;62.07;100038.06;5136946;28;1970;-55
2021/07/17 03:31:31;;;;;;;;;;;;;;;21.76;61.48;100042.28;5118662;28;1254;-46
2021/07/17 03:33:57;;;;;;;;;;;;;;;21.86;60.89;100041.13;5137011;28;783;-47
2021/07/17 03:36:23;;;;;;;;;;;;;;;21.26;62.90;100045.50;5136819;28;842;-55
2021/07/17 03:38:48;;;;;;;;;;;;;;;21.07;63.48;100032.78;5136882;28;750;-46
2021/07/17 03:41:14;;;;;;;;;;;;;;;21.14;60.72;100037.81;5136338;28;1016;-46
2021/07/17 03:43:39;;;;;;;;;;;;;;;20.94;58.20;100037.28;5136939;28;739;-45
2021/07/17 03:46:05;;;;;;;;;;;;;;;21.27;61.70;100044.38;5137024;28;809;-54
2021/07/17 03:48:30;;;;;;;;;;;;;;;21.42;63.25;100041.13;5136954;28;1914;-63
2021/07/17 03:50:56;;;;;;;;;;;;;;;21.84;61.80;100037.91;5140031;27;1149;-56
2021/07/17 03:53:21;;;;;;;;;;;;;;;21.76;61.59;100031.22;5158135;27;788;-56
2021/07/17 03:55:47;;;;;;;;;;;;;;;21.45;62.86;100029.41;5156937;27;977;-61
2021/07/17 03:58:12;;;;;;;;;;;;;;;21.17;62.94;100026.94;5157455;27;778;-59
2021/07/17 04:00:37;;;;;;;;;;;;;;;20.75;59.82;100025.69;5157130;27;901;-58
2021/07/17 04:03:04;;;;;;;;;;;;;;;21.25;61.80;100030.03;5159629;27;749;-55
2021/07/17 04:05:29;;;;;;;;;;;;;;;21.36;63.09;100023.03;5161377;27;1064;-58
2021/07/17 04:07:55;;;;;;;;;;;;;;;21.79;61.46;100027.78;5161643;27;734;-64
2021/07/17 04:10:20;;;;;;;;;;;;;;;21.33;62.45;100026.47;5161350;27;1913;-58
2021/07/17 04:12:45;;;;;;;;;;;;;;;21.48;62.82;100031.50;5161008;27;949;-58
2021/07/17 04:15:11;;;;;;;;;;;;;;;21.24;62.35;100025.63;5160919;27;739;-54
2021/07/17 04:17:36;;;;;;;;;;;;;;;20.95;58.61;100019.56;5161062;27;746;-59
2021/07/17 04:20:03;;;;;;;;;;;;;;;21.05;60.41;100026.75;5161368;27;743;-56
2021/07/17 04:22:28;;;;;;;;;;;;;;;21.19;64.76;100019.13;5161370;27;750;-45
2021/07/17 04:24:53;;;;;;;;;;;;;;;21.65;65.33;100019.66;5160997;27;834;-60
2021/07/17 04:27:19;;;;;;;;;;;;;;;21.14;66.39;100019.28;5160419;27;981;-46
2021/07/17 04:29:44;;;;;;;;;;;;;;;21.39;65.60;100011.31;5160736;27;1909;-46
2021/07/17 04:32:10;;;;;;;;;;;;;;;21.30;62.71;100003.03;5160686;27;774;-46
2021/07/17 04:34:35;;;;;;;;;;;;;;;21.16;57.42;100014.25;5160733;27;763;-55
2021/07/17 04:37:01;;;;;;;;;;;;;;;21.43;59.97;100017.84;5160629;27;862;-45
2021/07/17 04:39:26;;;;;;;;;;;;;;;21.50;62.88;100020.97;5141919;27;795;-56
2021/07/17 04:41:52;;;;;;;;;;;;;;;21.82;63.55;100018.81;5158457;27;934;-60
2021/07/17 04:44:17;;;;;;;;;;;;;;;22.07;63.50;100013.56;5160360;27;758;-59
2021/07/17 04:46:42;;;;;;;;;;;;;;;22.23;62.61;100019.38;5160408;27;759;-43
2021/07/17 04:49:08;;;;;;;;;;;;;;;22.32;61.99;100025.72;5160140;27;1972;-44
2021/07/17 04:51:33;;;;;;;;;;;;;;;21.81;63.42;100020.00;5160276;27;944;-54
2021/07/17 04:53:59;;;;;;;;;;;;;;;21.45;64.28;100020.31;5160321;27;775;-43
2021/07/17 04:56:24;;;;;;;;;;;;;;;21.15;59.00;100004.34;5153477;27;921;-44
2021/07/17 04:58:50;;;;;;;;;;;;;;;20.64;57.27;100011.34;5139488;27;759;-62
2021/07/17 05:01:15;;;;;;;;;;;;;;;20.34;57.94;100006.34;5139205;27;482;-60
2021/07/17 05:03:40;;;;;;;;;;;;;;;20.43;55.08;100009.13;5139366;27;1177;-62
2021/07/17 05:06:06;;;;;;;;;;;;;;;19.98;53.85;100004.53;5139258;27;787;-57
2021/07/17 05:08:31;;;;;;;;;;;;;;;20.37;51.75;100007.66;5139097;27;1980;-44
2021/07/17 05:10:57;;;;;;;;;;;;;;;20.32;54.32;100003.06;5138696;27;977;-59
2021/07/17 05:13:24;;;;;;;;;;;;;;;21.07;56.17;99993.25;5139051;27;798;-45
2021/07/17 05:15:49;;;;;;;;;;;;;;;21.24;58.74;99998.81;5139795;27;725;-59
2021/07/17 05:18:15;;;;;;;;;;;;;;;21.63;59.79;99999.81;5139052;27;850;-58
2021/07/17 05:20:41;;;;;;;;;;;;;;;21.24;62.64;100003.50;5139475;27;747;-60
2021/07/17 05:23:06;;;;;;;;;;;;;;;21.38;63.65;99995.91;5138745;27;748;-59
2021/07/17 05:25:32;;;;;;;;;;;;;;;21.18;62.59;99995.41;5139080;27;803;-45
2021/07/17 05:27:57;;;;;;;;;;;;;;;;;;5138688;27;1012;-50
2021/07/17 05:30:22;;;;;;;;;;;;;;;21.31;59.43;100001.09;5138515;27;1973;-52
2021/07/17 05:32:48;;;;;;;;;;;;;;;21.80;62.16;99998.19;5138213;27;815;-44
2021/07/17 05:35:13;;;;;;;;;;;;;;;21.97;64.22;100000.09;5138780;27;822;-47
2021/07/17 05:37:39;;;;;;;;;;;;;;;22.19;65.30;99993.53;5138753;27;756;-44
2021/07/17 05:40:05;;;;;;;;;;;;;;;22.01;66.04;99993.56;5138640;27;756;-44
2021/07/17 05:42:30;;;;;;;;;;;;;;;21.76;65.71;99992.47;5138184;27;1024;-44
2021/07/17 05:44:56;;;;;;;;;;;;;;;21.20;61.44;99998.63;5138187;27;811;-60
2021/07/17 05:47:21;;;;;;;;;;;;;;;20.29;58.00;99997.38;5138667;27;854;-46
2021/07/17 05:49:46;;;;;;;;;;;;;;;20.79;58.58;99988.81;5138659;27;1905;-45
2021/07/17 05:52:12;;;;;;;;;;;;;;;20.83;57.20;100000.03;5152690;27;1201;-44
2021/07/17 05:54:37;;;;;;;;;;;;;;;20.83;56.23;99998.09;5159067;27;810;-49
2021/07/17 05:57:03;;;;;;;;;;;;;;;21.03;55.44;99998.63;5158434;27;1012;-45
2021/07/17 05:59:28;;;;;;;;;;;;;;;21.12;55.74;99996.66;5159035;27;765;-45
2021/07/17 06:01:54;;;;;;;;;;;;;;;21.20;55.71;99998.63;5158772;27;878;-45
2021/07/17 06:04:19;;;;;;;;;;;;;;;21.16;55.96;100007.91;5159052;27;1119;-45
2021/07/17 06:06:45;;;;;;;;;;;;;;;21.02;56.15;99997.00;5159079;27;787;-45
2021/07/17 06:09:11;;;;;;;;;;;;;;;21.20;55.79;100009.69;5159084;27;1914;-45
2021/07/17 06:11:37;;;;;;;;;;;;;;;21.19;55.67;99996.19;5158413;27;969;-58
2021/07/17 06:14:02;;;;;;;;;;;;;;;21.18;55.81;100000.91;5158851;27;782;-61
2021/07/17 06:16:27;;;;;;;;;;;;;;;21.23;55.85;99999.13;5158616;27;778;-45
2021/07/17 06:18:53;;;;;;;;;;;;;;;21.31;55.75;100006.63;5159277;27;743;-48
2021/07/17 06:21:18;;;;;;;;;;;;;;;21.03;56.92;99999.44;5158948;27;746;-49
2021/07/17 06:23:44;;;;;;;;;;;;;;;21.20;56.65;100000.59;5158398;27;739;-47
2021/07/17 06:26:09;;;;;;;;;;;;;;;21.07;57.21;100005.13;5157650;27;996;-46
2021/07/17 06:28:34;;;;;;;;;;;;;;;20.51;56.27;99989.03;5158450;27;1974;-46
2021/07/17 06:31:00;;;;;;;;;;;;;;;21.03;57.39;99990.34;5158766;27;787;-59
2021/07/17 06:33:25;;;;;;;;;;;;;;;21.26;57.23;99990.19;5158269;27;795;-56
2021/07/17 06:35:51;;;;;;;;;;;;;;;21.61;57.24;99982.72;5158483;27;743;-47
2021/07/17 06:38:16;;;;;;;;;;;;;;;21.56;59.67;99984.84;5158096;27;790;-57
2021/07/17 06:40:41;;;;;;;;;;;;;;;21.32;62.10;99991.66;5139887;27;1140;-58
2021/07/17 06:43:07;;;;;;;;;;;;;;;21.41;62.12;99992.47;5157854;27;957;-51
2021/07/17 06:45:33;;;;;;;;;;;;;;;20.85;58.12;99987.53;5140060;27;1108;-57
2021/07/17 06:47:59;;;;;;;;;;;;;;;20.72;57.82;99982.97;5158026;27;877;-48
2021/07/17 06:50:24;;;;;;;;;;;;;;;21.03;58.93;99993.09;5157866;27;1910;-44
2021/07/17 06:52:50;;;;;;;;;;;;;;;21.05;58.39;99984.47;5157970;27;1264;-45
2021/07/17 06:55:15;;;;;;;;;;;;;;;20.95;57.58;99988.38;5157986;27;862;-55
2021/07/17 06:57:41;;;;;;;;;;;;;;;20.95;56.67;99985.59;5140620;27;945;-45
2021/07/17 07:00:10;;;;;;;;;;;;;;;20.99;56.32;99987.41;5137925;27;759;-50
2021/07/17 07:02:36;;;;;;;;;;;;;;;20.96;55.82;99976.19;5136861;27;794;-45
2021/07/17 07:05:02;;;;;;;;;;;;;;;20.80;56.00;99989.63;5136872;27;1180;-58
2021/07/17 07:07:27;;;;;;;;;;;;;;;20.87;55.92;99989.16;5137188;28;775;-58
2021/07/17 07:09:52;;;;;;;;;;;;;;;21.07;55.37;99994.09;5137103;28;1905;-56
2021/07/17 07:12:18;;;;;;;;;;;;;;;20.97;55.82;99991.59;5136617;28;961;-53
2021/07/17 07:14:43;;;;;;;;;;;;;;;21.15;55.49;99992.44;5137367;28;827;-44
2021/07/17 07:17:09;;;;;;;;;;;;;;;21.04;55.95;99986.41;5136684;28;802;-59
2021/07/17 07:19:34;;;;;;;;;;;;;;;20.84;56.76;99996.94;5137334;28;803;-59
2021/07/17 07:22:00;;;;;;;;;;;;;;;20.75;57.05;100000.81;5137167;28;743;-60
2021/07/17 07:24:26;;;;;;;;;;;;;;;20.44;55.48;100005.25;5136726;28;819;-58
2021/07/17 07:26:52;;;;;;;;;;;;;;;20.91;57.26;100004.78;5146528;27;1012;-43
2021/07/17 07:29:17;;;;;;;;;;;;;;;21.37;58.74;100008.09;5157415;27;1914;-59
2021/07/17 07:31:43;;;;;;;;;;;;;;;21.88;59.54;100008.41;5157743;27;783;-49
2021/07/17 07:34:08;;;;;;;;;;;;;;;21.49;62.66;100005.50;5157937;27;783;-58
2021/07/17 07:36:34;;;;;;;;;;;;;;;21.57;62.31;100000.31;5157646;27;807;-48
2021/07/17 07:39:00;;;;;;;;;;;;;;;21.02;56.64;100010.81;5161641;27;777;-53
2021/07/17 07:41:25;;;;;;;;;;;;;;;21.11;58.42;100011.66;5161086;27;917;-49
2021/07/17 07:43:50;;;;;;;;;;;;;;;20.93;59.47;100010.81;5161409;27;805;-44
2021/07/17 07:46:16;;;;;;;;;;;;;;;20.66;58.07;100007.13;5161339;27;815;-58
2021/07/17 07:48:42;;;;;;;;;;;;;;;20.49;57.20;100016.13;5161564;27;1980;-58
2021/07/17 07:51:10;;;;;;;;;;;;;;;21.03;56.38;100010.47;5161280;27;1247;-58
2021/07/17 07:53:36;;;;;;;;;;;;;;;21.59;57.46;100003.53;5161091;27;750;-58
2021/07/17 07:56:02;;;;;;;;;;;;;;;21.30;60.49;100011.31;5160979;27;949;-55
2021/07/17 07:58:28;;;;;;;;;;;;;;;21.18;62.39;100006.44;5161480;27;754;-59
2021/07/17 08:00:54;;;;;;;;;;;;;;;21.15;62.50;100001.56;5161032;27;819;-44
2021/07/17 08:03:19;;;;;;;;;;;;;;;20.97;59.15;100006.25;5161256;27;994;-45
2021/07/17 08:05:44;;;;;;;;;;;;;;;20.99;59.17;100008.69;5161164;27;866;-58
2021/07/17 08:08:10;;;;;;;;;;;;;;;21.64;61.97;100009.75;5160750;27;822;-60
2021/07/17 08:10:35;;;;;;;;;;;;;;;21.93;63.62;100012.97;5161690;27;1913;-56
2021/07/17 08:13:01;;;;;;;;;;;;;;;22.21;63.97;100008.63;5161468;27;1500;-49
2021/07/17 08:15:26;;;;;;;;;;;;;;;21.77;64.91;100007.94;5181543;27;743;-57
2021/07/17 08:17:52;;;;;;;;;;;;;;;21.67;65.97;100000.78;5176094;27;750;-44
2021/07/17 08:20:17;;;;;;;;;;;;;;;21.33;62.74;100001.56;5163301;27;1485;-60
2021/07/17 08:22:43;;;;;;;;;;;;;;;20.96;57.09;99996.34;5170080;27;826;-42
2021/07/17 08:25:08;;;;;;;;;;;;;;;20.90;58.47;99999.56;5160912;27;755;-42
2021/07/17 08:27:34;;;;;;;;;;;;;;;20.85;58.98;100001.34;5160387;27;961;-42
2021/07/17 08:29:59;;;;;;;;;;;;;;;20.68;58.86;99995.78;5161005;27;1905;-44
2021/07/17 08:32:25;;;;;;;;;;;;;;;20.74;56.87;100000.00;5160694;27;791;-42
2021/07/17 08:34:51;;;;;;;;;;;;;;;20.79;55.68;99997.13;5160573;27;886;-56
2021/07/17 08:37:17;;;;;;;;;;;;;;;20.82;55.49;99992.91;5160602;27;767;-57
2021/07/17 08:39:42;;;;;;;;;;;;;;;20.99;55.31;100001.22;5168242;27;1504;-41
2021/07/17 08:42:07;;;;;;;;;;;;;;;21.02;55.68;99997.00;5168774;27;948;-52
2021/07/17 08:44:33;;;;;;;;;;;;;;;21.01;56.05;99998.13;5141515;27;846;-49
2021/07/17 08:46:58;;;;;;;;;;;;;;;20.98;56.36;100004.31;5141881;27;850;-42
2021/07/17 08:49:24;;;;;;;;;;;;;;;21.11;55.99;100006.13;5179949;27;1982;-42
2021/07/17 08:51:49;;;;;;;;;;;;;;;20.98;56.51;100007.88;5150867;27;1125;-43
2021/07/17 08:54:15;;;;;;;;;;;;;;;21.30;55.70;100005.00;5144323;27;813;-42
2021/07/17 08:56:41;;;;;;;;;;;;;;;21.30;56.02;100008.56;5153331;27;1430;-55
2021/07/17 08:59:06;;;;;;;;;;;;;;;20.80;57.23;100012.56;5160121;27;759;-43
2021/07/17 09:01:32;;;;;;;;;;;;;;;20.90;56.19;100008.69;5159199;27;1106;-42
2021/07/17 09:03:57;;;;;;;;;;;;;;;20.35;56.34;100010.72;5159852;27;1171;-58
2021/07/17 09:06:22;;;;;;;;;;;;;;;20.81;57.89;100013.38;5159789;27;791;-42
2021/07/17 09:08:51;;;;;;;;;;;;;;;21.37;58.79;100008.09;5141559;27;1977;-58
2021/07/17 09:11:16;;;;;;;;;;;;;;;21.99;59.40;100019.94;5148946;27;1015;-57
2021/07/17 09:13:42;;;;;;;;;;;;;;;21.41;63.37;100024.84;5118613;28;850;-56
2021/07/17 09:16:07;;;;;;;;;;;;;;;21.47;64.73;100009.72;5118600;28;792;-43
2021/07/17 09:18:33;;;;;;;;;;;;;;;21.07;61.71;100010.66;5135605;27;1359;-43
2021/07/17 09:21:15;;;;;;;;;;;;;;;20.69;56.54;100016.72;5139152;27;743;-57
2021/07/17 09:23:42;;;;;;;;;;;;;;;21.01;58.83;100012.78;5139046;27;836;-47
2021/07/17 09:26:10;;;;;;;;;;;;;;;21.03;59.66;100020.75;5137997;27;1000;-57
2021/07/17 09:28:35;;;;;;;;;;;;;;;21.03;58.97;100012.44;5139171;27;1980;-55
2021/07/17 09:31:01;;;;;;;;;;;;;;;21.01;57.16;100023.00;5138872;27;873;-43
2021/07/17 09:33:27;;;;;;;;;;;;;;;20.70;56.95;100018.38;5138760;27;751;-57
2021/07/17 09:35:53;;;;;;;;;;;;;;;20.66;55.82;100025.63;5138602;27;814;-54
2021/07/17 09:38:18;;;;;;;;;;;;;;;20.72;55.21;100016.13;5147346;27;722;-56
2021/07/17 09:40:43;;;;;;;;;;;;;;;20.81;54.28;100025.22;5158755;27;933;-54
2021/07/17 09:43:09;;;;;;;;;;;;;;;20.80;53.90;100011.72;5138694;27;945;-51
2021/07/17 09:45:36;;;;;;;;;;;;;;;20.73;54.24;100028.78;5138656;27;874;-56
2021/07/17 09:48:22;;;;;;;;;;;;;;;20.92;54.97;100022.19;5138450;27;814;-42
2021/07/17 09:50:50;;;;;;;;;;;;;;;21.07;57.67;100027.25;5140054;27;1922;-54
2021/07/17 09:53:38;;;;;;;;;;;;;;;21.42;59.37;100030.06;5159533;27;810;-51
2021/07/17 09:56:04;;;;;;;;;;;;;;;21.19;62.25;100024.66;5147022;27;949;-43
2021/07/17 09:58:33;;;;;;;;;;;;;;;21.09;61.80;100024.97;5117881;28;751;-44
2021/07/17 10:01:14;;;;;;;;;;;;;;;20.89;59.54;100020.88;5116848;28;743;-57
2021/07/17 10:03:40;;;;;;;;;;;;;;;20.99;60.18;100014.22;5136005;27;1589;-44
2021/07/17 10:06:07;;;;;;;;;;;;;;;21.70;62.54;100021.47;5158826;27;786;-59
2021/07/17 10:08:33;;;;;;;;;;;;;;;22.01;63.89;100023.22;5152367;27;1913;-50
2021/07/17 10:11:04;;;;;;;;;;;;;;;22.28;64.40;100013.69;5162643;27;870;-60
2021/07/17 10:13:29;;;;;;;;;;;;;;;21.78;66.84;100020.63;5140572;27;1112;-60
2021/07/17 10:15:56;;;;;;;;;;;;;;;21.51;65.36;100024.53;5158895;27;800;-61
2021/07/17 10:18:24;;;;;;;;;;;;;;;20.74;59.71;100024.88;5161233;27;1445;-41
2021/07/17 10:20:50;;;;;;;;;;;;;;;20.93;59.16;100015.50;5158971;27;806;-44
2021/07/17 10:23:16;;;;;;;;;;;;;;;20.63;59.86;100024.31;5158986;27;810;-62
2021/07/17 10:25:41;;;;;;;;;;;;;;;20.36;58.53;100008.78;5140980;27;973;-62
2021/07/17 10:28:07;;;;;;;;;;;;;;;20.41;56.13;100021.63;5139281;27;998;-62
2021/07/17 10:30:33;;;;;;;;;;;;;;;20.35;54.20;100024.53;5158517;27;1913;-55
2021/07/17 10:32:58;;;;;;;;;;;;;;;20.41;52.57;100016.94;5139821;27;877;-62
2021/07/17 10:35:23;;;;;;;;;;;;;;;20.40;51.87;100026.34;5158410;27;850;-52
2021/07/17 10:37:49;;;;;;;;;;;;;;;20.50;51.18;100031.59;5158545;27;835;-57
2021/07/17 10:40:15;;;;;;;;;;;;;;;20.33;52.42;100028.75;5158473;27;803;-55
2021/07/17 10:42:50;;;;;;;;;;;;;;;20.91;54.44;100023.31;5157565;27;949;-41
2021/07/17 10:45:35;;;;;;;;;;;;;;;21.12;58.12;100017.97;5158424;27;739;-41
2021/07/17 10:48:00;;;;;;;;;;;;;;;21.51;59.28;100011.50;5158110;27;816;-41
2021/07/17 10:50:33;;;;;;;;;;;;;;;21.50;62.21;100018.19;5158085;27;1909;-52
2021/07/17 10:52:58;;;;;;;;;;;;;;;21.48;62.23;100020.44;5137591;27;739;-63
2021/07/17 10:55:24;;;;;;;;;;;;;;;20.95;61.24;100014.03;5137540;27;784;-41
2021/07/17 10:57:50;;;;;;;;;;;;;;;20.82;59.38;99999.22;5155202;27;922;-62
2021/07/17 11:00:36;;;;;;;;;;;;;;;20.76;63.55;99997.75;5158498;27;775;-62
2021/07/17 11:03:21;;;;;;;;;;;;;;;21.07;67.80;100009.84;5143526;27;1493;-53
2021/07/17 11:05:47;;;;;;;;;;;;;;;21.24;69.31;100009.03;5157856;27;1532;-61
2021/07/17 11:08:31;;;;;;;;;;;;;;;21.47;68.69;100007.75;5157594;27;735;-47
2021/07/17 11:10:56;;;;;;;;;;;;;;;21.32;67.31;100011.00;5158762;27;1000;-63
2021/07/17 11:13:31;;;;;;;;;;;;;;;20.93;64.55;100004.44;5165268;27;806;-41
2021/07/17 11:15:56;;;;;;;;;;;;;;;20.60;62.60;100004.81;5164898;27;767;-42
2021/07/17 11:18:22;;;;;;;;;;;;;;;20.34;61.23;100006.34;5164481;27;839;-59
2021/07/17 11:20:48;;;;;;;;;;;;;;;20.39;58.50;100010.09;5165223;27;770;-41
2021/07/17 11:23:17;;;;;;;;;;;;;;;20.43;56.32;100009.13;5165215;27;795;-41
2021/07/17 11:25:59;;;;;;;;;;;;;;;20.41;54.06;100008.66;5164791;27;953;-60
2021/07/17 11:28:44;;;;;;;;;;;;;;;20.54;53.60;100006.09;5164738;27;846;-60
2021/07/17 11:31:27;;;;;;;;;;;;;;;20.37;55.02;100004.91;5164884;27;814;-62
2021/07/17 11:34:16;;;;;;;;;;;;;;;20.20;56.63;100002.03;5164887;27;757;-41
2021/07/17 11:36:42;;;;;;;;;;;;;;;20.79;55.93;99999.03;5164669;27;798;-57
2021/07/17 11:39:08;;;;;;;;;;;;;;;20.46;57.33;100008.50;5164351;27;773;-43
2021/07/17 11:41:34;;;;;;;;;;;;;;;20.33;58.77;100001.16;5164548;27;1027;-49
2021/07/17 11:43:59;;;;;;;;;;;;;;;20.61;61.63;100004.50;5164670;27;862;-57
2021/07/17 11:46:25;;;;;;;;;;;;;;;20.80;63.74;99997.91;5164298;27;806;-57
2021/07/17 11:49:00;;;;;;;;;;;;;;;20.96;65.14;99995.53;5163347;27;1909;-45
2021/07/17 11:51:25;;;;;;;;;;;;;;;21.12;65.86;99996.66;5164403;27;1113;-56
2021/07/17 11:53:55;;;;;;;;;;;;;;;21.18;66.76;100000.91;5164461;27;838;-49
2021/07/17 11:56:20;;;;;;;;;;;;;;;21.17;66.42;99999.28;5163894;27;992;-45
2021/07/17 11:58:46;;;;;;;;;;;;;;;21.19;66.76;100007.25;5163924;27;858;-61
2021/07/17 12:01:14;;;;;;;;;;;;;;;21.30;68.17;99997.50;5164285;27;812;-45
2021/07/17 12:03:41;;;;;;;;;;;;;;;21.50;68.30;100004.34;5164823;27;1195;-63
2021/07/17 12:06:06;;;;;;;;;;;;;;;21.50;68.59;100009.88;5145599;27;899;-60
2021/07/17 12:08:32;;;;;;;;;;;;;;;21.76;67.39;100009.06;5163911;27;1979;-49
2021/07/17 12:10:57;;;;;;;;;;;;;;;21.35;65.45;100010.38;5164145;27;957;-62
2021/07/17 12:13:24;;;;;;;;;;;;;;;21.23;62.33;100007.44;5163912;27;835;-56
2021/07/17 12:15:50;;;;;;;;;;;;;;;20.99;60.32;100000.41;5164058;27;786;-59
2021/07/17 12:18:17;;;;;;;;;;;;;;;20.91;56.26;99990.16;5164286;27;831;-60
2021/07/17 12:20:43;;;;;;;;;;;;;;;20.79;54.80;100008.16;5164256;27;821;-59
2021/07/17 12:23:15;;;;;;;;;;;;;;;20.41;53.73;99997.63;5162087;27;843;-59
2021/07/17 12:25:40;;;;;;;;;;;;;;;20.50;53.23;100003.16;5160784;27;775;-45
2021/07/17 12:28:09;;;;;;;;;;;;;;;20.28;52.88;99998.50;5160196;27;992;-60
2021/07/17 12:30:38;;;;;;;;;;;;;;;20.53;53.18;100002.53;5160182;27;1913;-46
2021/07/17 12:33:13;;;;;;;;;;;;;;;20.48;54.47;100003.50;5160764;27;826;-53
2021/07/17 12:35:38;;;;;;;;;;;;;;;20.57;55.67;99995.22;5160918;27;753;-46
2021/07/17 12:38:36;;;;;;;;;;;;;;;20.43;56.95;99998.09;5160122;27;750;-44
2021/07/17 12:41:04;;;;;;;;;;;;;;;20.33;58.02;100004.72;5114277;27;1472;-57
2021/07/17 12:43:32;;;;;;;;;;;;;;;20.54;58.01;100001.41;5160457;27;735;-44
2021/07/17 12:45:58;;;;;;;;;;;;;;;20.83;57.51;99995.34;5160177;27;1126;-49
2021/07/17 12:48:23;;;;;;;;;;;;;;;20.87;57.55;100001.03;5170272;27;1348;-49
2021/07/17 12:50:48;;;;;;;;;;;;;;;20.95;57.46;99991.13;5160010;27;1905;-45
2021/07/17 12:53:14;;;;;;;;;;;;;;;20.68;58.25;100001.31;5141927;27;806;-44